Terminal Aerodrome Forecast
Issued by NWS Upton, NY

Home | Current Version | Previous Version | Text Only | Print | Product List | Glossary On
Versions: 1 2 3 4 5 6 7 8 9 10 11 12 13 14 15 16 17 18 19 20 21 22 23 24 25 26 27 28 29 30 31 32 33 34
366
FTUS41 KOKX 091930 AAA
TAFLGA
TAF AMD
KLGA 091930Z 0920/1018 30022G30KT P6SM BKN050
     FM100000 30015G23KT P6SM SCT050
     FM100500 30012G19KT P6SM FEW040
     FM100800 30011KT P6SM SCT150
     FM101400 29011G19KT P6SM BKN050 BKN150=

USA.gov is the U.S. government's official web portal to all federal, state and local government web resources and services.